Rhyl, United Kingdom
Current Conditions -  °F | °C
As of 2:50 PM on Wednesday 26 Nov 2014 (Local Time) from EGNR Reporting Station
Haze Haze  
Wind Chill: 44°   Ceiling: 700
Heat Index: 46°   Visibility: 1.8mi
Dew Point: 45°   Wind: 5mph
Humidity: 93%   Direction: 320°NW
Pressure: 29.85"   Gusts: NA
Location:  53.32°N, 3.49°W
Report Text: EGNR 261450Z 32004KT 3000 BR BKN007 OVC016 08/07 Q1011
Loading
Personal Weather Stations






























Interactive Weather Map New forecast layout! Learn more

10-Day Weather Forecast

Advertisements
Track Severe Weather on mobile